This is the latest recevied weather packets stored in our database for station/object DL7HMX-13. If no packets are shown the sender has not sent any weather packets the latest 10 day(s).
| Time | Temp. | Humidity | Pressure | Rain* | Wind** | Luminosity | Snow |
|---|---|---|---|---|---|---|---|
| 1777785624 | 7.78° C | 83% | 1017.1 hPa | 0 mm | - | 90 W/m² | - |
| 1777785027 | 7.22° C | 84% | 1017.2 hPa | 0 mm | - | 71 W/m² | - |
| 1777784430 | 6.11° C | 87% | 1017.2 hPa | 0 mm | - | 58 W/m² | - |
| 1777783818 | 6.67° C | 83% | 1017.2 hPa | 0 mm | - | 43 W/m² | - |
| 1777783219 | 6.11° C | 87% | 1017.2 hPa | 0 mm | - | 31 W/m² | - |
| 1777782624 | 5° C | 92% | 1017.1 hPa | 0 mm | - | 24 W/m² | - |
| 1777782026 | 4.44° C | 94% | 1017.2 hPa | 0 mm | - | 16 W/m² | - |
| 1777781430 | 3.89° C | 95% | 1017.2 hPa | 0 mm | - | 11 W/m² | - |
| 1777780832 | 3.89° C | 94% | 1017.1 hPa | 0 mm | - | 7 W/m² | - |
| 1777780218 | 4.44° C | 94% | 1017.1 hPa | 0 mm | - | 4 W/m² | - |
| 1777779621 | 4.44° C | 94% | 1016.9 hPa | 0 mm | - | 1 W/m² | - |
| 1777779025 | 4.44° C | 93% | 1016.9 hPa | 0 mm | - | 0 W/m² | - |
| 1777778429 | 4.44° C | 94% | 1017 hPa | 0 mm | - | 0 W/m² | - |
| 1777777830 | 4.44° C | 93% | 1016.9 hPa | 0 mm | - | 0 W/m² | - |
| 1777777217 | 4.44° C | 92% | 1016.9 hPa | 0 mm | - | 0 W/m² | - |
| 1777776621 | 4.44° C | 92% | 1016.9 hPa | 0 mm | - | 0 W/m² | - |
| 1777776023 | 5° C | 93% | 1016.9 hPa | 0 mm | - | 0 W/m² | - |
| 1777775426 | 5° C | 92% | 1017.1 hPa | 0 mm | - | 0 W/m² | - |
| 1777774830 | 5° C | 91% | 1017.1 hPa | 0 mm | - | 0 W/m² | - |
| 1777774217 | 5° C | 89% | 1017 hPa | 0 mm | - | 0 W/m² | - |
| 1777773619 | 5° C | 87% | 1017 hPa | 0 mm | - | 0 W/m² | - |
| 1777773023 | 5° C | 86% | 1017.1 hPa | 0 mm | - | 0 W/m² | - |
| 1777772425 | 5.56° C | 85% | 1017 hPa | 0 mm | - | 0 W/m² | - |
| 1777771829 | 5.56° C | 85% | 1017.1 hPa | 0 mm | - | 0 W/m² | - |
| 1777771232 | 5.56° C | 85% | 1017.3 hPa | 0 mm | - | 0 W/m² | - |
* Rain latest hour (hover to see other rain measurements)
** Current wind speed in m/s (hover to see current wind gust speed)